Time;durP1;ratioP1;P1;durP2;ratioP2;P2;SDS_P1;SDS_P2;PMS_P1;PMS_P2;Temp;Humidity;BMP_temperature;BMP_pressure;BME280_temperature;BME280_humidity;BME280_pressure;Samples;Min_cycle;Max_cycle;Signal;HPM_P1;HPM_P2
2022/12/08 00:01:33;;;;;;;7.35;2.53;;;1.00;99.90;;;;;;5008476;28;20045;-76
2022/12/08 00:04:00;;;;;;;6.32;2.63;;;1.00;99.90;;;;;;5007483;28;20048;-75
2022/12/08 00:09:21;;;;;;;7.47;3.10;;;1.00;99.90;;;;;;4999765;28;20057;-76
2022/12/08 00:12:07;;;;;;;8.07;3.35;;;1.00;99.90;;;;;;4986446;28;20589;-75
2022/12/08 00:14:39;;;;;;;4.78;2.97;;;1.00;99.90;;;;;;5003393;28;20512;-76
2022/12/08 00:17:06;;;;;;;8.15;3.22;;;1.00;99.90;;;;;;4985744;28;20061;-75
2022/12/08 00:19:32;;;;;;;8.55;3.40;;;1.00;99.90;;;;;;4987400;28;20093;-76
2022/12/08 00:21:58;;;;;;;8.65;3.47;;;1.00;99.90;;;;;;5001193;28;20033;-76
2022/12/08 00:24:28;;;;;;;7.45;3.60;;;1.00;99.90;;;;;;4987368;28;20038;-76
2022/12/08 00:26:54;;;;;;;7.75;3.75;;;1.00;99.90;;;;;;5002791;28;20045;-76
2022/12/08 00:29:19;;;;;;;10.38;4.00;;;1.00;99.90;;;;;;5011230;28;20500;-76
2022/12/08 00:31:45;;;;;;;9.70;4.05;;;1.00;99.90;;;;;;4992554;28;20034;-76
2022/12/08 00:34:12;;;;;;;7.18;4.30;;;1.10;99.90;;;;;;5006302;28;20033;-75
2022/12/08 00:36:38;;;;;;;11.85;4.68;;;1.00;99.90;;;;;;4998239;28;20061;-75
2022/12/08 00:39:04;;;;;;;9.55;4.63;;;1.00;99.90;;;;;;5001365;28;20495;-76
2022/12/08 00:44:17;;;;;;;8.70;5.25;;;1.10;99.90;;;;;;5007048;28;20458;-76
2022/12/08 00:46:43;;;;;;;10.90;5.40;;;1.10;99.90;;;;;;4999006;28;20045;-76
2022/12/08 00:49:10;;;;;;;9.55;5.68;;;1.10;99.90;;;;;;4987233;28;20045;-76
2022/12/08 00:51:36;;;;;;;7.38;5.47;;;1.20;99.90;;;;;;4992850;28;20030;-76
2022/12/08 00:54:03;;;;;;;9.75;5.90;;;1.20;99.90;;;;;;5003252;28;20310;-76
2022/12/08 00:56:28;;;;;;;14.55;7.68;;;1.20;99.90;;;;;;4995631;28;20030;-76
2022/12/08 00:58:54;;;;;;;10.95;6.53;;;1.30;99.90;;;;;;5002250;28;20044;-76
2022/12/08 01:01:20;;;;;;;10.25;6.63;;;1.30;99.90;;;;;;4967968;28;20400;-75
2022/12/08 01:03:45;;;;;;;12.75;7.30;;;1.30;99.90;;;;;;4989501;28;20075;-75
2022/12/08 01:06:11;;;;;;;13.00;7.90;;;1.40;99.90;;;;;;5010617;28;20037;-75
2022/12/08 01:08:38;;;;;;;13.73;8.63;;;1.40;99.90;;;;;;5006447;28;20037;-76
2022/12/08 01:11:06;;;;;;;12.45;8.52;;;1.50;99.90;;;;;;5014533;28;20080;-75
2022/12/08 01:13:32;;;;;;;14.43;8.30;;;1.50;99.90;;;;;;5014555;28;20048;-75
2022/12/08 01:15:57;;;;;;;16.45;9.70;;;1.60;99.90;;;;;;4980342;28;20034;-75
2022/12/08 01:18:23;;;;;;;17.30;9.82;;;1.70;99.90;;;;;;5007245;28;20034;-75
2022/12/08 01:20:49;;;;;;;13.55;10.32;;;1.70;99.90;;;;;;5002857;28;20147;-76
2022/12/08 01:23:14;;;;;;;14.35;9.55;;;1.70;99.90;;;;;;4995003;28;20041;-75
2022/12/08 01:25:40;;;;;;;13.05;9.75;;;1.80;99.90;;;;;;4987058;28;20558;-75
2022/12/08 01:28:05;;;;;;;15.45;9.70;;;1.80;99.90;;;;;;5002502;28;20067;-76
2022/12/08 01:30:31;;;;;;;16.20;9.75;;;1.80;99.90;;;;;;4994667;28;20037;-76
2022/12/08 01:32:57;;;;;;;14.05;9.35;;;1.90;99.90;;;;;;4978412;28;20038;-75
2022/12/08 01:35:22;;;;;;;15.55;9.80;;;1.90;99.90;;;;;;4993055;28;20038;-75
2022/12/08 01:37:49;;;;;;;13.32;8.40;;;1.90;99.90;;;;;;4989492;28;20044;-76
2022/12/08 01:40:15;;;;;;;19.02;9.52;;;2.00;99.90;;;;;;4979180;28;20034;-76
2022/12/08 01:42:40;;;;;;;23.40;10.27;;;2.00;99.90;;;;;;4989808;28;20045;-76
2022/12/08 01:45:13;;;;;;;15.43;9.93;;;2.10;99.90;;;;;;4994048;28;20096;-76
2022/12/08 01:47:48;;;;;;;14.38;9.40;;;2.10;99.90;;;;;;4977902;28;20042;-75
2022/12/08 01:50:16;;;;;;;17.02;8.50;;;2.10;99.90;;;;;;4982399;28;20129;-76
2022/12/08 01:52:46;;;;;;;12.82;7.60;;;2.10;99.90;;;;;;4994428;28;20052;-76
2022/12/08 01:55:37;;;;;;;14.48;7.40;;;2.00;99.90;;;;;;4992732;28;20041;-78
2022/12/08 01:58:11;;;;;;;11.90;6.80;;;2.00;99.90;;;;;;4985975;28;20034;-76
2022/12/08 02:00:36;;;;;;;10.23;6.68;;;2.00;99.90;;;;;;4993685;28;20048;-76
2022/12/08 02:03:05;;;;;;;12.35;6.63;;;2.00;99.90;;;;;;5017719;28;20041;-77
2022/12/08 02:05:37;;;;;;;13.13;6.90;;;1.90;99.90;;;;;;4995214;28;20373;-76
2022/12/08 02:08:07;;;;;;;14.77;6.80;;;1.90;99.90;;;;;;5000578;28;20037;-76
2022/12/08 02:10:36;;;;;;;14.75;8.35;;;1.90;99.90;;;;;;5005519;28;20048;-76
2022/12/08 02:13:05;;;;;;;14.82;8.73;;;1.90;99.90;;;;;;5001871;28;20073;-76
2022/12/08 02:15:59;;;;;;;20.27;10.25;;;2.00;99.90;;;;;;4988347;28;20038;-76
2022/12/08 02:18:44;;;;;;;14.90;9.70;;;2.00;99.90;;;;;;4989049;28;20038;-77
2022/12/08 02:21:45;;;;;;;20.92;12.70;;;2.00;99.90;;;;;;4975014;28;20128;-76
2022/12/08 02:24:43;;;;;;;25.95;13.50;;;2.10;99.90;;;;;;4918032;29;20095;-78
2022/12/08 02:27:32;;;;;;;28.33;14.98;;;2.20;99.90;;;;;;4998250;28;20064;-79
2022/12/08 02:30:04;;;;;;;34.47;15.13;;;2.20;99.90;;;;;;4983260;28;20042;-76
2022/12/08 02:33:08;;;;;;;30.85;16.77;;;2.30;99.90;;;;;;4998937;28;20049;-76
2022/12/08 02:35:45;;;;;;;29.30;15.77;;;2.40;99.90;;;;;;5005533;28;20504;-76
2022/12/08 02:38:42;;;;;;;29.30;17.13;;;2.40;99.90;;;;;;5001812;28;20041;-76
2022/12/08 02:41:24;;;;;;;32.60;16.90;;;2.40;99.90;;;;;;4960047;28;20046;-76
2022/12/08 02:44:15;;;;;;;35.55;18.95;;;2.40;99.90;;;;;;4977513;28;20050;-76
2022/12/08 02:46:57;;;;;;;36.28;18.52;;;2.50;99.90;;;;;;4966837;28;20100;-77
2022/12/08 02:49:32;;;;;;;39.40;18.63;;;2.50;99.90;;;;;;4989912;28;20507;-76
2022/12/08 02:52:13;;;;;;;32.63;16.60;;;2.50;99.90;;;;;;4995098;28;20100;-76
2022/12/08 02:54:44;;;;;;;26.98;15.90;;;2.60;99.90;;;;;;5000335;28;20042;-76
2022/12/08 02:57:19;;;;;;;25.00;14.75;;;2.60;99.90;;;;;;4993100;28;20041;-76
2022/12/08 03:00:08;;;;;;;22.30;14.05;;;2.60;99.90;;;;;;4996549;28;20042;-76
2022/12/08 03:02:52;;;;;;;22.58;13.10;;;2.60;99.90;;;;;;5003467;28;20076;-77
2022/12/08 03:05:27;;;;;;;24.20;13.10;;;2.60;99.90;;;;;;5008142;28;20527;-77
2022/12/08 03:08:29;;;;;;;20.92;12.52;;;2.60;99.90;;;;;;4988621;28;20034;-76
2022/12/08 03:11:02;;;;;;;23.33;11.70;;;2.60;99.90;;;;;;4968816;28;20046;-77
2022/12/08 03:13:38;;;;;;;19.15;11.20;;;2.60;99.90;;;;;;4989127;28;20057;-76
2022/12/08 03:16:06;;;;;;;16.70;9.65;;;2.60;99.90;;;;;;5015239;28;20091;-76
2022/12/08 03:18:38;;;;;;;20.85;9.73;;;2.60;99.90;;;;;;5008124;28;20560;-77
2022/12/08 03:21:05;;;;;;;16.70;9.15;;;2.50;99.90;;;;;;4991777;28;20049;-76
2022/12/08 03:23:32;;;;;;;17.73;9.00;;;2.50;99.90;;;;;;4979458;28;20042;-76
2022/12/08 03:26:18;;;;;;;15.27;8.95;;;2.50;99.90;;;;;;4983193;28;20052;-75
2022/12/08 03:28:44;;;;;;;21.48;9.70;;;2.50;99.90;;;;;;5003217;28;20121;-76
2022/12/08 03:31:13;;;;;;;19.67;9.77;;;2.50;99.90;;;;;;4995351;28;20053;-76
2022/12/08 03:33:42;;;;;;;16.30;9.18;;;2.50;99.90;;;;;;4994459;28;20046;-76
2022/12/08 03:36:10;;;;;;;30.10;12.25;;;2.40;99.90;;;;;;4982657;28;20030;-76
2022/12/08 03:38:39;;;;;;;22.70;11.43;;;2.40;99.90;;;;;;4996636;28;20109;-76
2022/12/08 03:41:19;;;;;;;26.55;12.73;;;2.40;99.90;;;;;;4986937;28;20080;-76
2022/12/08 03:43:54;;;;;;;18.70;11.95;;;2.40;99.90;;;;;;4991221;28;20495;-76
2022/12/08 03:46:22;;;;;;;24.27;13.15;;;2.40;99.90;;;;;;4992403;28;20091;-76
2022/12/08 03:48:48;;;;;;;25.98;14.90;;;2.50;99.90;;;;;;4983349;28;20041;-76
2022/12/08 03:51:14;;;;;;;24.67;13.32;;;2.50;99.90;;;;;;4999336;28;20038;-76
2022/12/08 03:53:40;;;;;;;26.13;13.65;;;2.50;99.90;;;;;;5000126;28;20109;-76
2022/12/08 03:56:33;;;;;;;30.20;13.45;;;2.50;99.90;;;;;;4994163;28;20030;-76
2022/12/08 03:58:59;;;;;;;18.05;11.45;;;2.50;99.90;;;;;;4992971;28;20053;-76
2022/12/08 04:01:24;;;;;;;17.95;9.93;;;2.60;99.90;;;;;;4986303;28;20033;-76
2022/12/08 04:03:50;;;;;;;16.20;8.48;;;2.60;99.90;;;;;;5000973;23;20162;-76
2022/12/08 04:06:20;;;;;;;12.63;7.15;;;2.60;99.90;;;;;;4945024;29;20038;-76
2022/12/08 04:08:46;;;;;;;10.27;5.57;;;2.60;99.90;;;;;;4937004;29;20122;-76
2022/12/08 04:11:13;;;;;;;9.45;4.03;;;2.50;99.90;;;;;;4952972;29;20087;-76
2022/12/08 04:13:43;;;;;;;7.22;4.05;;;2.60;99.90;;;;;;4938169;29;20104;-76
2022/12/08 04:16:19;;;;;;;8.40;4.03;;;2.60;99.90;;;;;;4938465;29;20039;-76
2022/12/08 04:18:45;;;;;;;7.78;3.80;;;2.60;99.90;;;;;;4953928;29;20082;-76
2022/12/08 04:21:11;;;;;;;10.00;3.80;;;2.60;99.90;;;;;;4935476;29;20039;-76
2022/12/08 04:23:37;;;;;;;8.15;4.07;;;2.60;99.90;;;;;;4951999;28;20050;-76
2022/12/08 04:26:06;;;;;;;10.90;4.43;;;2.60;99.90;;;;;;4951737;28;20525;-76
2022/12/08 04:28:34;;;;;;;10.32;5.07;;;2.60;99.90;;;;;;4956894;28;20462;-76
2022/12/08 04:31:00;;;;;;;9.80;5.13;;;2.60;99.90;;;;;;4953070;28;20445;-76
2022/12/08 04:33:26;;;;;;;10.38;5.50;;;2.70;99.90;;;;;;4946865;28;20093;-76
2022/12/08 04:35:55;;;;;;;9.32;5.55;;;2.60;99.90;;;;;;4950432;28;20069;-76
2022/12/08 04:38:20;;;;;;;10.40;5.97;;;2.50;99.90;;;;;;4953380;28;20050;-76
2022/12/08 04:40:49;;;;;;;11.43;6.25;;;2.50;99.90;;;;;;4961014;28;20093;-76
2022/12/08 04:43:15;;;;;;;13.40;7.03;;;2.50;99.90;;;;;;4953889;28;20039;-76
2022/12/08 04:45:41;;;;;;;18.40;7.97;;;2.50;99.90;;;;;;4942461;29;20094;-76
2022/12/08 04:48:07;;;;;;;19.23;8.13;;;2.50;99.90;;;;;;4952548;29;20089;-76
2022/12/08 04:50:33;;;;;;;16.98;7.88;;;2.50;99.90;;;;;;4974117;28;20149;-76
2022/12/08 04:52:58;;;;;;;15.30;7.95;;;2.50;99.90;;;;;;4945121;28;20050;-76
2022/12/08 04:55:24;;;;;;;14.63;7.75;;;2.40;99.90;;;;;;4952656;28;20047;-76
2022/12/08 04:57:50;;;;;;;18.38;7.63;;;2.40;99.90;;;;;;4944970;29;20512;-76
2022/12/08 05:00:16;;;;;;;15.02;7.70;;;2.40;99.90;;;;;;4942907;28;20039;-76
2022/12/08 05:02:42;;;;;;;13.70;7.22;;;2.40;99.90;;;;;;4979601;28;20063;-76
2022/12/08 05:05:08;;;;;;;15.65;7.55;;;2.40;99.90;;;;;;4955048;28;20054;-76
2022/12/08 05:07:33;;;;;;;13.13;7.68;;;2.40;99.90;;;;;;4980305;28;20081;-76
2022/12/08 05:09:59;;;;;;;13.50;6.70;;;2.30;99.90;;;;;;4946551;29;20078;-76
2022/12/08 05:12:26;;;;;;;12.18;6.88;;;2.30;99.90;;;;;;4946878;28;20034;-76
2022/12/08 05:14:51;;;;;;;15.15;6.30;;;2.30;99.90;;;;;;4948705;28;20035;-76
2022/12/08 05:17:18;;;;;;;13.82;6.03;;;2.30;99.90;;;;;;4956213;28;20042;-76
2022/12/08 05:19:47;;;;;;;15.68;6.45;;;2.30;99.90;;;;;;4956023;28;20045;-76
2022/12/08 05:22:12;;;;;;;14.35;5.40;;;2.40;99.90;;;;;;4941508;28;20046;-76
2022/12/08 05:24:38;;;;;;;7.38;4.32;;;2.40;99.90;;;;;;4955992;28;20047;-76
2022/12/08 05:27:04;;;;;;;8.32;3.75;;;2.40;99.90;;;;;;4956081;28;20049;-76
2022/12/08 05:29:32;;;;;;;7.85;3.63;;;2.40;99.90;;;;;;4951668;28;20409;-76
2022/12/08 05:31:58;;;;;;;8.57;3.50;;;2.30;99.90;;;;;;4939739;28;20039;-76
2022/12/08 05:34:23;;;;;;;7.75;2.75;;;2.40;99.90;;;;;;4948960;28;20045;-76
2022/12/08 05:36:51;;;;;;;8.25;2.50;;;2.40;99.90;;;;;;4943704;29;20118;-76
2022/12/08 05:39:17;;;;;;;5.28;1.95;;;2.30;99.90;;;;;;4948538;28;20130;-76
2022/12/08 05:41:43;;;;;;;4.45;1.83;;;2.40;99.90;;;;;;4937989;28;20122;-76
2022/12/08 05:44:14;;;;;;;4.15;1.80;;;2.30;99.90;;;;;;4946214;28;20123;-76
2022/12/08 05:46:42;;;;;;;8.02;2.00;;;2.30;99.90;;;;;;4944734;28;20154;-76
2022/12/08 05:49:10;;;;;;;4.85;1.83;;;2.30;99.90;;;;;;4950465;28;20118;-76
2022/12/08 05:51:35;;;;;;;3.63;1.73;;;2.30;99.90;;;;;;4946464;28;20170;-76
2022/12/08 05:54:01;;;;;;;6.68;1.92;;;2.30;99.90;;;;;;4940998;28;20126;-76
2022/12/08 05:56:27;;;;;;;5.18;1.88;;;2.30;99.90;;;;;;4938118;28;20042;-76
2022/12/08 05:58:57;;;;;;;6.13;1.98;;;2.30;99.90;;;;;;4950964;28;20050;-76
2022/12/08 06:01:26;;;;;;;17.80;2.60;;;2.20;99.90;;;;;;4946509;28;20035;-76
2022/12/08 06:03:57;;;;;;;4.82;2.15;;;2.30;99.90;;;;;;4961504;28;20465;-76
2022/12/08 06:06:23;;;;;;;4.93;2.90;;;2.30;99.90;;;;;;4958611;28;20031;-76
2022/12/08 06:08:54;;;;;;;4.63;2.03;;;2.30;99.90;;;;;;4949235;28;20035;-76
2022/12/08 06:11:24;;;;;;;5.38;1.92;;;2.40;99.90;;;;;;4947296;28;20039;-76
2022/12/08 06:13:50;;;;;;;6.57;2.05;;;2.20;99.90;;;;;;4955308;28;20074;-76
2022/12/08 06:16:16;;;;;;;6.72;3.03;;;2.30;99.90;;;;;;4944041;28;20035;-76
2022/12/08 06:18:42;;;;;;;6.63;2.80;;;2.30;99.90;;;;;;4999563;28;20042;-76
2022/12/08 06:21:10;;;;;;;6.00;3.50;;;2.30;99.90;;;;;;4963609;28;20039;-76
2022/12/08 06:23:36;;;;;;;4.63;2.90;;;2.30;99.90;;;;;;4955176;28;20051;-76
2022/12/08 06:26:10;;;;;;;4.90;1.75;;;2.30;99.90;;;;;;4945939;28;20041;-76
2022/12/08 06:28:37;;;;;;;9.18;3.20;;;2.30;99.90;;;;;;4955773;28;20047;-76
2022/12/08 06:31:23;;;;;;;6.70;3.05;;;2.30;99.90;;;;;;4940623;29;20040;-76
2022/12/08 06:33:50;;;;;;;9.50;2.95;;;2.30;99.90;;;;;;4996111;28;20039;-76
2022/12/08 06:36:18;;;;;;;5.05;1.88;;;2.30;99.90;;;;;;4946160;28;20038;-76
2022/12/08 06:38:44;;;;;;;8.32;2.00;;;2.30;99.90;;;;;;4943656;28;20051;-76
2022/12/08 06:41:11;;;;;;;4.57;1.80;;;2.30;99.90;;;;;;4943291;28;20078;-76
2022/12/08 06:43:37;;;;;;;3.40;1.33;;;2.30;99.90;;;;;;4947186;28;20042;-76
2022/12/08 06:46:06;;;;;;;4.40;1.40;;;2.30;99.90;;;;;;4946953;28;20129;-76
2022/12/08 06:48:32;;;;;;;5.05;1.92;;;2.30;99.90;;;;;;4968270;28;20058;-76
2022/12/08 06:51:05;;;;;;;3.92;1.23;;;2.20;99.90;;;;;;4952342;28;20042;-76
2022/12/08 06:53:31;;;;;;;4.38;1.20;;;2.30;99.90;;;;;;4964913;28;20413;-76
2022/12/08 06:55:56;;;;;;;4.00;1.33;;;2.30;99.90;;;;;;4959640;28;20047;-76
2022/12/08 06:58:22;;;;;;;8.88;1.50;;;2.30;99.90;;;;;;4949733;29;20039;-76
2022/12/08 07:00:47;;;;;;;4.53;1.42;;;2.30;99.90;;;;;;4978353;28;20046;-76
2022/12/08 07:03:16;;;;;;;5.85;1.50;;;2.30;99.90;;;;;;4937393;28;20155;-75
2022/12/08 07:05:47;;;;;;;3.85;1.35;;;2.30;99.90;;;;;;4989288;28;20038;-78
2022/12/08 07:08:19;;;;;;;5.53;1.40;;;2.20;99.90;;;;;;4959092;28;20051;-77
2022/12/08 07:10:48;;;;;;;4.80;1.55;;;2.20;99.90;;;;;;4945445;28;20059;-78
2022/12/08 07:13:19;;;;;;;4.85;1.40;;;2.20;99.90;;;;;;4959052;28;20039;-76
2022/12/08 07:15:45;;;;;;;4.53;1.30;;;2.20;99.90;;;;;;4994007;28;20086;-77
2022/12/08 07:18:11;;;;;;;4.25;1.65;;;2.10;99.90;;;;;;4942519;29;20035;-77
2022/12/08 07:20:37;;;;;;;3.85;1.45;;;2.20;99.90;;;;;;4974312;28;20121;-77
2022/12/08 07:23:02;;;;;;;5.85;1.60;;;2.20;99.90;;;;;;4974538;28;20043;-77
2022/12/08 07:25:28;;;;;;;4.80;1.67;;;2.20;99.90;;;;;;4952185;28;20483;-77
2022/12/08 07:27:57;;;;;;;4.28;1.50;;;2.20;99.90;;;;;;4958586;28;20081;-77
2022/12/08 07:30:25;;;;;;;3.80;1.23;;;2.10;99.90;;;;;;4946169;28;20038;-76
2022/12/08 07:32:51;;;;;;;2.17;1.00;;;2.20;99.90;;;;;;4976615;28;20356;-78
2022/12/08 07:35:16;;;;;;;4.80;0.93;;;2.10;99.90;;;;;;4945995;29;20465;-77
2022/12/08 07:37:42;;;;;;;4.20;1.10;;;2.10;99.90;;;;;;4947058;28;20041;-76
2022/12/08 07:40:09;;;;;;;3.83;0.93;;;2.10;99.90;;;;;;4975718;28;20039;-77
2022/12/08 07:42:34;;;;;;;4.80;1.50;;;2.10;99.90;;;;;;4965843;28;20270;-77
2022/12/08 07:45:03;;;;;;;3.80;1.13;;;2.10;99.90;;;;;;4961693;28;20039;-78
2022/12/08 07:47:28;;;;;;;4.15;1.00;;;2.00;99.90;;;;;;4936231;28;20457;-76
2022/12/08 07:49:54;;;;;;;2.15;1.05;;;2.10;99.90;;;;;;4962214;28;20110;-76
2022/12/08 07:52:20;;;;;;;3.53;1.20;;;2.10;99.90;;;;;;4938641;29;20413;-76
2022/12/08 07:54:46;;;;;;;3.78;0.93;;;2.10;99.90;;;;;;4961578;28;20070;-77
2022/12/08 07:57:12;;;;;;;3.20;1.02;;;2.10;99.90;;;;;;4952840;28;20038;-77
2022/12/08 07:59:41;;;;;;;4.53;1.02;;;2.10;99.90;;;;;;4941143;28;20102;-76
2022/12/08 08:02:18;;;;;;;3.88;1.25;;;2.10;99.90;;;;;;4951306;29;20043;-77
2022/12/08 08:04:44;;;;;;;2.72;1.27;;;2.10;99.90;;;;;;4938821;28;20046;-77
2022/12/08 08:07:10;;;;;;;3.13;1.20;;;2.10;99.90;;;;;;4939414;29;20031;-78
2022/12/08 08:09:35;;;;;;;4.80;2.08;;;2.10;99.90;;;;;;4962723;28;20121;-77
2022/12/08 08:12:01;;;;;;;4.25;1.30;;;2.10;99.90;;;;;;4959266;28;20047;-78
2022/12/08 08:14:27;;;;;;;4.88;2.00;;;2.10;99.90;;;;;;4948312;28;20099;-78
2022/12/08 08:16:53;;;;;;;5.07;1.85;;;2.10;99.90;;;;;;4938651;29;20062;-78
2022/12/08 08:19:18;;;;;;;3.22;1.63;;;2.10;99.90;;;;;;4937855;29;20062;-78
2022/12/08 08:21:47;;;;;;;5.05;1.83;;;2.10;99.90;;;;;;4953166;28;20088;-78
2022/12/08 08:24:16;;;;;;;3.30;1.90;;;2.10;99.90;;;;;;4971940;28;20045;-78
2022/12/08 08:26:42;;;;;;;4.43;2.17;;;2.10;99.90;;;;;;4963724;28;20482;-78
2022/12/08 08:29:13;;;;;;;6.63;2.15;;;2.00;99.90;;;;;;4937316;29;20035;-78
2022/12/08 08:31:44;;;;;;;6.55;2.58;;;2.10;99.90;;;;;;4958256;28;20075;-78
2022/12/08 08:34:16;;;;;;;4.25;2.13;;;2.10;99.90;;;;;;4939318;29;20035;-78
2022/12/08 08:36:41;;;;;;;8.18;2.47;;;2.00;99.90;;;;;;4964925;28;20469;-78
2022/12/08 08:39:30;;;;;;;5.50;2.70;;;2.10;99.90;;;;;;4958452;28;20043;-80
2022/12/08 08:41:56;;;;;;;6.38;2.80;;;2.10;99.90;;;;;;4958117;28;20039;-78
2022/12/08 08:44:58;;;;;;;6.38;3.40;;;2.10;99.90;;;;;;4948131;28;20117;-77
2022/12/08 08:47:30;;;;;;;9.50;4.20;;;2.10;99.90;;;;;;4940275;29;20043;-77
2022/12/08 08:49:55;;;;;;;10.87;4.90;;;2.20;99.90;;;;;;4948973;28;20117;-78
2022/12/08 08:52:24;;;;;;;12.30;5.18;;;2.20;99.90;;;;;;4941867;29;20441;-77
2022/12/08 08:54:52;;;;;;;11.20;5.75;;;2.20;99.90;;;;;;4938057;28;20042;-77
2022/12/08 08:57:23;;;;;;;10.82;5.82;;;2.30;99.90;;;;;;4969000;28;20129;-77
2022/12/08 08:59:52;;;;;;;14.50;7.30;;;2.30;99.90;;;;;;4959904;28;20118;-77
2022/12/08 09:02:28;;;;;;;11.15;7.10;;;2.40;99.90;;;;;;4944804;29;20523;-78
2022/12/08 09:05:14;;;;;;;17.20;8.45;;;2.40;99.90;;;;;;4952606;28;20058;-76
2022/12/08 09:07:42;;;;;;;17.92;8.90;;;2.50;99.90;;;;;;4946248;29;20498;-77
2022/12/08 09:10:11;;;;;;;16.60;9.30;;;2.50;99.90;;;;;;4935978;29;20130;-77
2022/12/08 09:12:37;;;;;;;25.23;10.27;;;2.50;99.90;;;;;;4944881;28;20066;-78
2022/12/08 09:15:09;;;;;;;14.70;10.25;;;2.60;99.90;;;;;;4950315;28;20490;-77
2022/12/08 09:17:37;;;;;;;20.15;10.93;;;2.60;99.90;;;;;;4945006;28;20050;-77
2022/12/08 09:20:05;;;;;;;17.25;10.35;;;2.60;99.90;;;;;;4937992;29;20114;-77
2022/12/08 09:22:37;;;;;;;19.63;9.90;;;2.70;99.90;;;;;;4936773;29;20142;-77
2022/12/08 09:25:05;;;;;;;17.45;10.18;;;2.70;99.90;;;;;;4941512;28;20045;-77
2022/12/08 09:27:31;;;;;;;20.13;10.80;;;2.80;99.90;;;;;;4947934;28;20034;-77
2022/12/08 09:29:59;;;;;;;14.13;8.80;;;2.80;99.90;;;;;;4956515;28;20531;-77
2022/12/08 09:32:39;;;;;;;11.32;8.05;;;2.80;99.90;;;;;;4956300;28;20074;-77
2022/12/08 09:35:10;;;;;;;14.13;8.23;;;2.90;99.90;;;;;;4955764;28;20501;-77
2022/12/08 09:37:36;;;;;;;9.98;6.60;;;2.90;99.90;;;;;;4945762;28;20035;-77
2022/12/08 09:40:10;;;;;;;10.40;7.13;;;2.90;99.90;;;;;;4945450;29;20043;-77
2022/12/08 09:42:49;;;;;;;10.57;6.35;;;2.90;99.90;;;;;;4955105;28;20047;-77
2022/12/08 09:45:19;;;;;;;9.85;6.30;;;3.00;99.90;;;;;;4955918;28;20042;-77
2022/12/08 09:48:04;;;;;;;9.38;5.93;;;3.10;99.90;;;;;;4956061;28;20042;-77
2022/12/08 09:50:46;;;;;;;9.30;4.72;;;3.10;99.90;;;;;;4951188;28;20039;-77
2022/12/08 09:53:17;;;;;;;10.15;5.05;;;3.10;99.90;;;;;;4947779;28;21829;-77
2022/12/08 09:55:56;;;;;;;6.85;4.85;;;3.10;99.90;;;;;;4956322;28;20396;-77
2022/12/08 09:58:51;;;;;;;8.77;4.35;;;3.20;99.90;;;;;;4955624;28;20405;-77
2022/12/08 10:01:26;;;;;;;7.47;4.43;;;3.20;99.90;;;;;;4956133;28;20475;-77
2022/12/08 10:03:55;;;;;;;9.23;4.40;;;3.20;99.90;;;;;;4956696;28;20121;-77
2022/12/08 10:06:26;;;;;;;9.82;4.35;;;3.30;99.90;;;;;;4949245;28;20124;-77
2022/12/08 10:09:13;;;;;;;7.60;4.37;;;3.30;99.90;;;;;;4940593;28;20516;-77
2022/12/08 10:11:52;;;;;;;7.53;3.92;;;3.30;99.90;;;;;;4955740;28;20050;-77
2022/12/08 10:14:33;;;;;;;7.72;4.32;;;3.40;99.90;;;;;;4956250;28;20497;-77
2022/12/08 10:17:26;;;;;;;7.13;3.65;;;3.40;99.90;;;;;;4944081;29;20039;-77
2022/12/08 10:20:15;;;;;;;7.00;3.90;;;3.40;99.90;;;;;;4976135;28;20041;-76
2022/12/08 10:22:50;;;;;;;7.72;3.92;;;3.30;99.90;;;;;;4990771;28;20054;-77
2022/12/08 10:25:34;;;;;;;9.25;4.22;;;3.20;99.90;;;;;;4975557;28;20109;-77
2022/12/08 10:28:03;;;;;;;11.52;4.38;;;3.20;99.90;;;;;;4959110;28;20062;-77
2022/12/08 10:30:33;;;;;;;7.93;3.88;;;3.20;99.90;;;;;;4955287;28;20043;-77
2022/12/08 10:33:07;;;;;;;;;;;3.20;99.90;;;;;;4946948;28;20481;-77
2022/12/08 10:36:03;;;;;;;13.48;4.70;;;3.20;99.90;;;;;;4974653;28;19918;-77
2022/12/08 10:38:36;;;;;;;8.05;4.50;;;3.30;99.90;;;;;;4939503;28;20038;-77
2022/12/08 10:41:18;;;;;;;8.82;4.65;;;3.20;99.90;;;;;;4935540;28;20102;-77
2022/12/08 10:43:47;;;;;;;7.75;4.70;;;3.30;99.90;;;;;;4985875;28;20082;-76
2022/12/08 10:46:26;;;;;;;6.50;3.95;;;3.40;99.90;;;;;;4950829;28;20093;-76
2022/12/08 10:49:10;;;;;;;9.35;4.93;;;3.40;99.90;;;;;;4943725;28;20051;-76
2022/12/08 10:51:38;;;;;;;6.82;4.15;;;3.40;99.90;;;;;;4981447;28;20058;-76
2022/12/08 10:54:07;;;;;;;8.35;4.82;;;3.50;99.90;;;;;;4947407;28;20069;-76
2022/12/08 10:56:35;;;;;;;7.85;4.65;;;3.50;99.90;;;;;;4950821;28;20046;-76
2022/12/08 10:59:10;;;;;;;7.40;4.70;;;3.50;99.90;;;;;;4967510;28;20045;-75
2022/12/08 11:01:44;;;;;;;7.68;5.28;;;3.50;99.90;;;;;;4958267;28;20134;-76
2022/12/08 11:04:21;;;;;;;9.55;5.38;;;3.50;99.90;;;;;;4938158;28;20378;-76
2022/12/08 11:06:49;;;;;;;8.10;5.70;;;3.50;99.90;;;;;;4958595;28;20521;-76
2022/12/08 11:09:15;;;;;;;11.43;6.43;;;3.50;99.90;;;;;;4957208;28;20043;-75
2022/12/08 11:11:49;;;;;;;11.63;6.22;;;3.60;99.90;;;;;;4947455;28;20054;-76
2022/12/08 11:14:29;;;;;;;9.32;6.60;;;3.60;99.90;;;;;;4947576;28;20048;-76
2022/12/08 11:17:07;;;;;;;12.00;6.80;;;3.60;99.90;;;;;;4957889;28;20122;-76
2022/12/08 11:19:37;;;;;;;12.25;6.15;;;3.60;99.90;;;;;;4955182;28;20046;-76
2022/12/08 11:22:33;;;;;;;11.82;7.22;;;3.60;99.90;;;;;;4966317;28;20038;-76
2022/12/08 11:25:11;;;;;;;11.75;7.40;;;3.60;99.90;;;;;;4936011;28;20413;-76
2022/12/08 11:27:43;;;;;;;11.38;7.97;;;3.60;99.90;;;;;;4949463;28;20568;-76
2022/12/08 11:30:22;;;;;;;11.83;8.27;;;3.60;99.90;;;;;;4942040;29;20109;-76
2022/12/08 11:32:56;;;;;;;10.98;7.18;;;3.70;99.90;;;;;;4979447;28;20046;-76
2022/12/08 11:35:39;;;;;;;10.02;7.57;;;3.70;99.90;;;;;;4950636;28;20046;-76
2022/12/08 11:38:20;;;;;;;10.40;6.43;;;3.70;99.90;;;;;;4953293;28;20551;-76
2022/12/08 11:40:50;;;;;;;9.80;6.35;;;3.80;99.90;;;;;;4976138;28;20090;-75
2022/12/08 11:43:43;;;;;;;10.52;6.97;;;3.80;99.90;;;;;;4949953;28;20042;-76
2022/12/08 11:46:09;;;;;;;;;;;3.80;99.90;;;;;;4961817;28;20520;-76
2022/12/08 11:48:42;;;;;;;9.88;6.20;;;3.80;99.90;;;;;;4945718;28;19922;-77
2022/12/08 11:51:18;;;;;;;10.65;6.80;;;3.80;99.90;;;;;;4946836;29;20043;-76
2022/12/08 11:54:02;;;;;;;8.45;6.32;;;3.80;99.90;;;;;;4947344;28;20097;-77
2022/12/08 11:56:40;;;;;;;11.38;6.97;;;3.90;99.90;;;;;;4946608;28;20113;-76
2022/12/08 11:59:26;;;;;;;7.85;5.57;;;3.90;99.90;;;;;;4977905;28;20035;-76
2022/12/08 12:01:54;;;;;;;8.73;6.35;;;4.00;99.90;;;;;;4936684;28;20058;-76
2022/12/08 12:04:49;;;;;;;8.68;6.13;;;4.20;99.90;;;;;;4948068;28;20034;-76
2022/12/08 12:07:40;;;;;;;7.35;5.93;;;4.50;99.90;;;;;;4945939;29;20043;-77
2022/12/08 12:10:17;;;;;;;8.25;6.15;;;4.80;99.90;;;;;;4951410;28;20055;-76
2022/12/08 12:13:23;;;;;;;6.85;5.55;;;5.10;99.90;;;;;;4953349;28;20049;-76
2022/12/08 12:16:21;;;;;;;7.13;5.75;;;5.20;99.90;;;;;;4963616;28;20506;-76
2022/12/08 12:19:16;;;;;;;8.82;4.72;;;5.30;99.90;;;;;;4945180;29;20095;-76
2022/12/08 12:21:54;;;;;;;7.28;3.95;;;5.70;99.90;;;;;;4937188;28;20047;-77
2022/12/08 12:24:33;;;;;;;7.88;4.05;;;5.90;99.90;;;;;;4937121;29;20050;-77
2022/12/08 12:27:14;;;;;;;7.57;3.20;;;6.00;99.90;;;;;;4962514;28;20041;-77
2022/12/08 12:30:26;;;;;;;7.10;2.88;;;5.80;99.90;;;;;;4960961;28;20541;-77
2022/12/08 12:33:03;;;;;;;4.40;3.40;;;5.60;99.90;;;;;;4972284;28;20039;-76
2022/12/08 12:35:42;;;;;;;4.55;3.03;;;5.40;99.90;;;;;;4943709;28;20113;-77
2022/12/08 12:46:00;;;;;;;;;;;;;;;;;;;;;
2022/12/08 12:49:25;;;;;;;4.07;2.83;;;5.60;99.90;;;;;;5028262;28;20037;-80
2022/12/08 12:52:22;;;;;;;4.53;3.22;;;5.70;99.90;;;;;;4979972;28;20045;-80
2022/12/08 12:55:19;;;;;;;6.28;2.70;;;5.90;99.90;;;;;;4951321;28;20454;-79
2022/12/08 12:57:53;;;;;;;4.50;2.60;;;5.90;99.90;;;;;;4932941;29;21951;-78
2022/12/08 13:00:32;;;;;;;4.90;2.83;;;6.00;99.90;;;;;;4961111;28;20515;-77
2022/12/08 13:03:14;;;;;;;5.63;3.05;;;5.90;99.90;;;;;;4987227;28;20061;-78
2022/12/08 13:05:55;;;;;;;3.75;2.70;;;5.80;99.90;;;;;;4976323;28;20194;-78
2022/12/08 13:08:29;;;;;;;4.50;2.70;;;5.70;99.90;;;;;;4991095;28;20034;-79
2022/12/08 13:11:14;;;;;;;5.43;3.13;;;5.60;99.90;;;;;;4972551;28;20500;-78
2022/12/08 13:14:03;;;;;;;3.47;2.97;;;5.50;99.90;;;;;;4991722;28;20045;-78
2022/12/08 13:16:38;;;;;;;6.53;2.88;;;5.40;99.90;;;;;;4970463;28;20050;-79
2022/12/08 13:19:22;;;;;;;5.00;2.78;;;5.30;99.90;;;;;;4993822;28;20054;-79
2022/12/08 13:22:11;;;;;;;6.25;3.10;;;5.20;99.90;;;;;;4986272;28;20077;-79
2022/12/08 13:24:37;;;;;;;3.60;3.13;;;5.10;99.90;;;;;;4995738;28;20074;-80
2022/12/08 13:27:38;;;;;;;5.07;3.50;;;5.00;99.90;;;;;;4993489;28;20492;-80
2022/12/08 13:31:00;;;;;;;3.33;2.92;;;4.80;99.90;;;;;;4994597;28;20070;-80
2022/12/08 13:34:00;;;;;;;4.90;3.88;;;4.70;99.90;;;;;;4975551;28;20046;-79
2022/12/08 13:36:49;;;;;;;4.85;3.13;;;4.60;99.90;;;;;;4998940;28;20416;-79